Time;durP1;ratioP1;P1;durP2;ratioP2;P2;SDS_P1;SDS_P2;PMS_P1;PMS_P2;Temp;Humidity;BMP_temperature;BMP_pressure;BME280_temperature;BME280_humidity;BME280_pressure;Samples;Min_cycle;Max_cycle;Signal;HPM_P1;HPM_P2
2023/11/11 00:01:19;;;;;;;1.73;1.63;;;9.70;40.00;;;;;;10280386;28;20764;-76
2023/11/11 00:06:23;;;;;;;1.60;1.47;;;9.60;39.70;;;;;;10280479;28;20721;-76
2023/11/11 00:11:27;;;;;;;1.90;1.70;;;9.50;39.70;;;;;;10279517;28;20227;-76
2023/11/11 00:16:32;;;;;;;1.73;1.50;;;9.50;39.60;;;;;;10279364;28;20228;-76
2023/11/11 00:21:39;;;;;;;1.83;1.67;;;9.50;39.70;;;;;;10280187;28;20238;-76
2023/11/11 00:26:46;;;;;;;1.50;1.40;;;9.40;39.80;;;;;;10279928;28;20223;-76
2023/11/11 00:31:50;;;;;;;2.50;1.50;;;9.40;39.90;;;;;;10278847;28;20323;-76
2023/11/11 00:36:57;;;;;;;1.93;1.40;;;9.50;39.50;;;;;;10278781;28;20705;-76
2023/11/11 00:42:01;;;;;;;1.77;1.40;;;9.40;39.40;;;;;;10278789;28;20231;-76
2023/11/11 00:47:04;;;;;;;2.00;1.40;;;9.30;39.20;;;;;;10278670;28;20238;-76
2023/11/11 00:52:09;;;;;;;2.93;1.40;;;9.30;39.40;;;;;;10278683;28;20247;-76
2023/11/11 00:57:12;;;;;;;2.53;1.30;;;9.20;39.60;;;;;;10277331;28;20246;-76
2023/11/11 01:02:15;;;;;;;1.80;1.20;;;9.20;39.40;;;;;;10277504;28;20252;-76
2023/11/11 01:07:20;;;;;;;1.23;1.20;;;9.20;39.60;;;;;;10277422;28;20753;-76
2023/11/11 01:12:23;;;;;;;2.20;1.50;;;9.10;39.70;;;;;;10277514;28;20811;-76
2023/11/11 01:17:27;;;;;;;3.63;1.80;;;9.10;39.70;;;;;;10276643;28;20604;-75
2023/11/11 01:22:32;;;;;;;2.23;1.50;;;9.00;40.10;;;;;;10276919;28;20251;-75
2023/11/11 01:27:37;;;;;;;1.50;1.37;;;9.00;40.10;;;;;;10277608;28;20231;-76
2023/11/11 01:32:40;;;;;;;2.83;1.40;;;9.00;40.10;;;;;;10278290;28;20239;-76
2023/11/11 01:37:45;;;;;;;1.50;1.10;;;9.00;40.10;;;;;;10278619;28;20231;-76
2023/11/11 01:42:48;;;;;;;1.20;1.10;;;9.00;40.10;;;;;;10275985;28;20320;-75
2023/11/11 01:47:51;;;;;;;1.33;1.20;;;9.00;40.10;;;;;;10262293;28;20223;-75
2023/11/11 01:52:56;;;;;;;1.33;1.00;;;9.00;40.10;;;;;;10262174;28;20263;-75
2023/11/11 01:58:00;;;;;;;2.17;1.20;;;9.00;40.10;;;;;;10254721;28;20224;-75
2023/11/11 02:03:03;;;;;;;1.67;1.10;;;9.10;40.10;;;;;;10262658;28;20227;-75
2023/11/11 02:08:08;;;;;;;0.90;0.90;;;9.10;40.10;;;;;;10261117;28;20339;-76
2023/11/11 02:13:15;;;;;;;2.20;0.93;;;9.10;40.10;;;;;;10263100;28;20698;-76
2023/11/11 02:18:19;;;;;;;1.07;0.90;;;9.20;40.30;;;;;;10264579;28;20306;-76
2023/11/11 02:23:28;;;;;;;1.13;0.70;;;9.20;40.20;;;;;;10260207;28;20236;-76
2023/11/11 02:28:32;;;;;;;1.00;0.70;;;9.20;41.00;;;;;;10266961;28;20231;-76
2023/11/11 02:33:35;;;;;;;0.80;0.60;;;9.30;41.40;;;;;;10263431;28;20270;-77
2023/11/11 02:38:40;;;;;;;0.87;0.67;;;9.30;41.20;;;;;;10262543;28;20250;-77
2023/11/11 02:43:43;;;;;;;0.87;0.80;;;9.20;41.70;;;;;;10268887;28;20623;-77
2023/11/11 02:48:47;;;;;;;0.60;0.60;;;9.20;41.50;;;;;;10268801;28;20283;-76
2023/11/11 02:53:52;;;;;;;0.47;0.47;;;9.20;41.80;;;;;;10260052;28;20259;-76
2023/11/11 02:58:56;;;;;;;1.37;0.80;;;9.10;42.20;;;;;;10264521;28;20876;-76
2023/11/11 03:04:00;;;;;;;0.93;0.60;;;9.00;42.40;;;;;;10263978;28;20236;-76
2023/11/11 03:09:05;;;;;;;0.60;0.60;;;9.00;42.50;;;;;;10260115;28;20885;-75
2023/11/11 03:14:08;;;;;;;1.07;0.60;;;9.00;42.60;;;;;;10270215;28;20234;-76
2023/11/11 03:19:11;;;;;;;0.87;0.60;;;9.00;42.50;;;;;;10267303;28;20310;-76
2023/11/11 03:24:16;;;;;;;0.60;0.60;;;9.00;42.90;;;;;;10267406;28;20228;-76
2023/11/11 03:29:19;;;;;;;0.60;0.60;;;9.00;43.20;;;;;;10267221;28;20384;-76
2023/11/11 03:34:22;;;;;;;0.60;0.60;;;9.00;42.80;;;;;;10270664;28;21072;-76
2023/11/11 03:39:27;;;;;;;0.70;0.70;;;9.10;42.90;;;;;;10268751;28;20737;-75
2023/11/11 03:44:30;;;;;;;0.57;0.53;;;9.10;43.30;;;;;;10270494;28;20259;-76
2023/11/11 03:49:33;;;;;;;0.60;0.60;;;9.10;42.90;;;;;;10269894;28;20921;-75
2023/11/11 03:54:39;;;;;;;0.70;0.70;;;9.10;43.00;;;;;;10266497;28;20228;-76
2023/11/11 03:59:43;;;;;;;0.80;0.60;;;9.10;44.40;;;;;;10269499;28;20228;-75
2023/11/11 04:04:46;;;;;;;0.80;0.80;;;9.10;43.00;;;;;;10270108;28;20678;-76
2023/11/11 04:09:51;;;;;;;1.40;1.23;;;9.10;43.00;;;;;;10265799;28;20242;-76
2023/11/11 04:14:55;;;;;;;0.80;0.80;;;9.10;43.60;;;;;;10267880;28;20235;-76
2023/11/11 04:19:58;;;;;;;0.50;0.50;;;9.10;43.20;;;;;;10267448;28;20250;-75
2023/11/11 04:25:05;;;;;;;0.60;0.60;;;9.10;44.00;;;;;;10265603;28;20336;-76
2023/11/11 04:30:10;;;;;;;0.50;0.50;;;9.20;43.60;;;;;;10268733;28;20259;-76
2023/11/11 04:35:14;;;;;;;0.50;0.50;;;9.30;43.20;;;;;;10268993;28;20720;-76
2023/11/11 04:40:20;;;;;;;0.40;0.40;;;9.40;43.10;;;;;;10267330;28;20254;-76
2023/11/11 04:45:23;;;;;;;0.40;0.40;;;9.40;43.30;;;;;;10269369;28;20305;-77
2023/11/11 04:50:27;;;;;;;0.37;0.37;;;9.50;43.00;;;;;;10270132;28;20236;-75
2023/11/11 04:55:31;;;;;;;0.50;0.50;;;9.60;43.00;;;;;;10268795;28;20303;-76
2023/11/11 05:00:34;;;;;;;0.50;0.50;;;9.60;43.10;;;;;;10267128;28;20234;-76
2023/11/11 05:05:38;;;;;;;0.47;0.40;;;9.70;42.80;;;;;;10268932;28;20232;-76
2023/11/11 05:10:42;;;;;;;1.20;1.10;;;9.70;42.70;;;;;;10266617;28;20249;-77
2023/11/11 05:15:47;;;;;;;0.83;0.50;;;9.70;43.00;;;;;;10266953;28;20227;-77
2023/11/11 05:20:51;;;;;;;2.20;0.40;;;9.70;42.60;;;;;;10263261;28;20238;-77
2023/11/11 05:25:56;;;;;;;0.40;0.40;;;9.70;43.30;;;;;;10263563;28;20228;-77
2023/11/11 05:30:59;;;;;;;0.30;0.30;;;9.70;42.50;;;;;;10263853;28;20232;-77
2023/11/11 05:36:02;;;;;;;0.30;0.30;;;9.60;42.10;;;;;;10265254;28;20219;-77
2023/11/11 05:41:07;;;;;;;0.40;0.40;;;9.50;42.10;;;;;;10267631;28;20600;-77
2023/11/11 05:46:10;;;;;;;0.50;0.50;;;9.40;42.50;;;;;;10253685;28;20234;-77
2023/11/11 05:51:14;;;;;;;0.30;0.30;;;9.30;42.50;;;;;;10264009;28;20228;-77
2023/11/11 05:56:19;;;;;;;0.30;0.30;;;9.20;42.70;;;;;;10259364;28;20247;-77
2023/11/11 06:01:23;;;;;;;0.50;0.50;;;9.20;43.00;;;;;;10261295;28;20239;-77
2023/11/11 06:06:26;;;;;;;0.50;0.50;;;9.10;42.90;;;;;;10264801;28;20263;-76
2023/11/11 06:11:30;;;;;;;0.80;0.80;;;9.10;43.00;;;;;;10265638;28;20232;-77
2023/11/11 06:16:33;;;;;;;0.60;0.60;;;9.10;43.70;;;;;;10262392;28;20229;-77
2023/11/11 06:21:37;;;;;;;0.80;0.80;;;9.10;43.50;;;;;;10263516;28;20282;-77
2023/11/11 06:26:41;;;;;;;1.00;0.90;;;9.10;43.70;;;;;;10258506;28;20298;-77
2023/11/11 06:31:45;;;;;;;1.00;0.90;;;9.10;44.40;;;;;;10259583;28;20232;-76
2023/11/11 06:36:48;;;;;;;2.00;0.90;;;9.10;44.10;;;;;;10258319;28;20874;-77
2023/11/11 06:41:53;;;;;;;0.60;0.60;;;9.10;44.20;;;;;;10258985;28;20233;-77
2023/11/11 06:46:56;;;;;;;2.50;2.30;;;9.10;44.70;;;;;;10268609;28;20239;-77
2023/11/11 06:52:00;;;;;;;1.90;1.20;;;9.20;44.50;;;;;;10268252;28;20227;-77
2023/11/11 06:57:05;;;;;;;1.00;1.00;;;9.20;44.10;;;;;;10269854;28;20651;-77
2023/11/11 07:02:12;;;;;;;0.90;0.90;;;9.30;44.70;;;;;;10271237;28;20247;-77
2023/11/11 07:07:16;;;;;;;1.50;1.40;;;9.30;44.20;;;;;;10268741;28;20282;-77
2023/11/11 07:12:22;;;;;;;1.00;1.00;;;9.30;44.40;;;;;;10274798;28;20347;-77
2023/11/11 07:17:25;;;;;;;0.73;0.70;;;9.30;44.50;;;;;;10267540;28;20302;-77
2023/11/11 07:22:31;;;;;;;3.13;1.00;;;9.30;44.30;;;;;;10263762;28;20242;-76
2023/11/11 07:27:36;;;;;;;0.70;0.70;;;9.30;44.60;;;;;;10264704;28;20228;-76
2023/11/11 07:32:44;;;;;;;0.77;0.77;;;9.40;44.30;;;;;;10271190;28;20227;-76
2023/11/11 07:38:04;;;;;;;0.80;0.80;;;9.40;44.30;;;;;;10271475;28;20784;-76
2023/11/11 07:43:08;;;;;;;0.90;0.90;;;9.40;44.30;;;;;;10268861;28;20224;-76
2023/11/11 07:48:11;;;;;;;0.80;0.80;;;9.40;44.60;;;;;;10266235;28;20342;-76
2023/11/11 07:53:17;;;;;;;2.30;1.10;;;9.40;44.40;;;;;;10266451;28;20246;-76
2023/11/11 07:58:22;;;;;;;0.80;0.80;;;9.50;44.40;;;;;;10267408;28;20287;-76
2023/11/11 08:03:28;;;;;;;0.87;0.70;;;9.50;44.50;;;;;;10269057;28;20228;-76
2023/11/11 08:08:31;;;;;;;1.00;1.00;;;9.60;44.30;;;;;;10270077;28;20250;-76
2023/11/11 08:13:36;;;;;;;0.80;0.80;;;9.60;44.10;;;;;;10267106;28;20229;-76
2023/11/11 08:18:39;;;;;;;1.30;1.20;;;9.60;44.30;;;;;;10264159;28;20773;-75
2023/11/11 08:23:50;;;;;;;1.40;1.30;;;9.60;44.00;;;;;;10266526;28;20702;-76
2023/11/11 08:28:55;;;;;;;1.80;1.10;;;9.60;44.00;;;;;;10264613;28;20326;-76
2023/11/11 08:33:59;;;;;;;1.03;1.00;;;9.70;44.50;;;;;;10269031;28;20274;-76
2023/11/11 08:39:03;;;;;;;3.27;2.97;;;9.70;44.30;;;;;;10269809;28;20226;-76
2023/11/11 08:44:07;;;;;;;1.27;1.17;;;9.70;44.30;;;;;;10269496;28;20227;-76
2023/11/11 08:49:11;;;;;;;1.10;1.00;;;9.80;44.30;;;;;;10267635;28;20236;-76
2023/11/11 08:54:15;;;;;;;1.30;1.20;;;9.90;44.10;;;;;;10262604;28;20275;-76
2023/11/11 08:59:20;;;;;;;1.30;1.20;;;9.80;44.00;;;;;;10264775;28;20236;-76
2023/11/11 09:04:23;;;;;;;1.33;1.23;;;9.90;44.30;;;;;;10262039;28;20239;-76
2023/11/11 09:09:27;;;;;;;1.50;1.40;;;9.90;44.00;;;;;;10266122;28;20232;-76
2023/11/11 09:14:33;;;;;;;1.77;1.10;;;9.90;44.10;;;;;;10265752;28;20224;-76
2023/11/11 09:19:37;;;;;;;1.40;1.30;;;9.90;44.50;;;;;;10265752;28;20255;-76
2023/11/11 09:24:41;;;;;;;1.20;1.10;;;9.90;44.30;;;;;;10264093;28;20231;-76
2023/11/11 09:29:46;;;;;;;1.73;1.60;;;10.00;43.10;;;;;;10259792;28;20251;-76
2023/11/11 09:34:51;;;;;;;1.50;1.40;;;10.10;43.30;;;;;;10260475;28;20247;-76
2023/11/11 09:39:55;;;;;;;1.53;1.40;;;10.20;43.10;;;;;;10267476;28;20232;-77
2023/11/11 09:45:02;;;;;;;1.47;1.37;;;10.20;43.00;;;;;;10264903;28;20255;-76
2023/11/11 09:50:10;;;;;;;2.03;1.70;;;10.30;43.00;;;;;;10257206;28;20243;-77
2023/11/11 09:55:14;;;;;;;1.60;1.30;;;10.30;42.70;;;;;;10233301;28;20715;-75
2023/11/11 10:00:19;;;;;;;1.30;1.20;;;10.30;42.60;;;;;;10258134;28;20234;-76
2023/11/11 10:05:23;;;;;;;1.30;1.00;;;10.40;42.50;;;;;;10256919;28;20315;-75
2023/11/11 10:10:27;;;;;;;1.30;1.00;;;10.40;42.30;;;;;;10258688;28;20342;-76
2023/11/11 10:15:32;;;;;;;1.47;1.30;;;10.40;42.20;;;;;;10243678;28;20237;-75
2023/11/11 10:20:36;;;;;;;1.30;1.20;;;10.40;42.20;;;;;;10262793;28;22311;-74
2023/11/11 10:25:42;;;;;;;1.50;1.40;;;10.40;42.20;;;;;;10260802;28;20232;-75
2023/11/11 10:30:51;;;;;;;1.97;1.73;;;10.40;41.80;;;;;;10265510;28;20322;-75
2023/11/11 10:35:55;;;;;;;2.73;1.50;;;10.40;41.90;;;;;;10262308;28;20611;-75
2023/11/11 10:40:58;;;;;;;1.73;1.43;;;10.40;42.10;;;;;;10265320;28;20318;-74
2023/11/11 10:46:04;;;;;;;2.27;1.60;;;10.40;41.90;;;;;;10261213;28;20227;-75
2023/11/11 10:51:08;;;;;;;1.97;1.67;;;10.50;42.20;;;;;;10261937;28;20256;-73
2023/11/11 10:56:12;;;;;;;1.90;1.70;;;10.50;42.30;;;;;;10262088;28;20235;-75
2023/11/11 11:01:17;;;;;;;1.83;1.63;;;10.60;42.30;;;;;;10261361;28;20236;-75
2023/11/11 11:06:30;;;;;;;2.00;1.80;;;10.60;41.90;;;;;;10273498;28;20227;-76
2023/11/11 11:11:39;;;;;;;2.00;1.90;;;10.60;42.20;;;;;;10269636;28;20316;-74
2023/11/11 11:16:44;;;;;;;1.70;1.60;;;10.70;41.70;;;;;;10268045;28;20238;-74
2023/11/11 11:28:21;;;;;;;2.23;1.70;;;10.70;41.90;;;;;;10259349;28;20247;-74
2023/11/11 11:33:30;;;;;;;1.73;1.63;;;10.70;41.90;;;;;;10269450;28;20325;-74
2023/11/11 11:38:35;;;;;;;1.70;1.60;;;10.70;41.20;;;;;;10278692;28;20245;-74
2023/11/11 11:43:40;;;;;;;2.27;1.70;;;10.80;41.80;;;;;;10277691;28;20246;-74
2023/11/11 11:48:46;;;;;;;2.00;1.90;;;10.90;41.90;;;;;;10282479;28;20239;-75
2023/11/11 11:53:53;;;;;;;1.40;1.30;;;11.00;41.40;;;;;;10281375;28;20255;-75
2023/11/11 11:58:59;;;;;;;2.27;1.60;;;11.10;41.20;;;;;;10282398;28;20279;-73
2023/11/11 12:04:05;;;;;;;1.83;1.33;;;11.20;41.00;;;;;;10281641;28;20242;-74
2023/11/11 12:09:09;;;;;;;1.97;1.60;;;11.30;40.20;;;;;;10281665;28;20259;-74
2023/11/11 12:14:14;;;;;;;1.63;1.20;;;11.20;39.60;;;;;;10280164;28;20311;-74
2023/11/11 12:19:21;;;;;;;2.40;1.30;;;11.20;39.70;;;;;;10270331;28;20610;-74
2023/11/11 12:24:26;;;;;;;2.47;1.50;;;11.20;39.50;;;;;;10272239;28;20298;-74
2023/11/11 12:29:29;;;;;;;1.40;1.30;;;11.20;39.90;;;;;;10276901;28;20548;-75
2023/11/11 12:34:35;;;;;;;1.77;1.30;;;11.10;40.10;;;;;;10274044;28;20294;-75
2023/11/11 12:39:50;;;;;;;1.40;1.30;;;11.00;40.50;;;;;;10273697;28;20232;-75
2023/11/11 12:44:53;;;;;;;1.60;1.50;;;11.00;39.20;;;;;;10271976;28;20839;-75
2023/11/11 12:49:58;;;;;;;2.33;1.30;;;10.90;39.60;;;;;;10265250;28;20318;-76
2023/11/11 12:55:04;;;;;;;1.17;1.07;;;10.80;39.70;;;;;;10285730;28;20223;-76
2023/11/11 13:00:08;;;;;;;1.00;1.00;;;10.60;39.60;;;;;;10285626;28;20228;-75
2023/11/11 13:05:13;;;;;;;1.70;1.47;;;10.50;40.30;;;;;;10284007;28;20219;-75
2023/11/11 13:10:18;;;;;;;2.03;1.83;;;10.30;40.20;;;;;;10287727;28;20283;-75
2023/11/11 13:15:21;;;;;;;4.27;3.50;;;10.20;40.10;;;;;;10289469;28;20334;-77
2023/11/11 13:20:28;;;;;;;1.50;1.40;;;10.20;40.10;;;;;;10264787;28;20290;-77
2023/11/11 13:25:31;;;;;;;2.50;1.50;;;10.20;40.10;;;;;;10285123;28;20722;-77
2023/11/11 13:30:34;;;;;;;2.20;2.00;;;10.20;40.50;;;;;;10279057;28;20239;-76
2023/11/11 13:35:41;;;;;;;1.70;1.60;;;10.20;40.90;;;;;;10278314;28;20224;-76
2023/11/11 13:40:46;;;;;;;1.90;1.80;;;10.20;40.90;;;;;;10274657;28;20231;-76
2023/11/11 13:45:49;;;;;;;2.10;1.70;;;10.30;40.80;;;;;;10273349;28;20294;-75
2023/11/11 13:50:55;;;;;;;2.00;1.70;;;10.40;40.60;;;;;;10272403;28;20325;-76
2023/11/11 13:56:01;;;;;;;2.13;1.70;;;10.50;40.70;;;;;;10269589;28;20236;-76
2023/11/11 14:01:05;;;;;;;2.90;2.30;;;10.60;40.50;;;;;;10274823;28;20242;-75
2023/11/11 14:06:09;;;;;;;1.87;1.73;;;10.60;40.50;;;;;;10273233;28;20313;-75
2023/11/11 14:11:13;;;;;;;4.60;2.93;;;10.70;40.30;;;;;;10276403;28;20271;-74
2023/11/11 14:16:16;;;;;;;2.20;2.00;;;10.70;39.70;;;;;;10274345;28;20346;-74
2023/11/11 14:21:21;;;;;;;1.87;1.77;;;10.80;39.70;;;;;;10276702;28;20228;-76
2023/11/11 14:26:24;;;;;;;2.17;1.70;;;10.80;39.30;;;;;;10278427;28;20307;-75
2023/11/11 14:31:32;;;;;;;2.53;1.70;;;10.80;39.60;;;;;;10273914;28;20240;-76
2023/11/11 14:36:38;;;;;;;1.77;1.60;;;10.80;39.50;;;;;;10276478;28;20230;-75
2023/11/11 14:41:42;;;;;;;1.73;1.43;;;10.90;39.00;;;;;;10276114;28;20231;-78
2023/11/11 14:46:47;;;;;;;1.40;1.30;;;10.90;39.20;;;;;;10276945;28;20234;-80
2023/11/11 14:51:52;;;;;;;2.17;1.33;;;10.80;38.40;;;;;;10275729;28;20232;-75
2023/11/11 14:56:55;;;;;;;1.50;1.40;;;10.80;38.00;;;;;;10280664;28;20232;-74
2023/11/11 15:01:59;;;;;;;3.57;2.00;;;10.80;38.30;;;;;;10274921;28;20315;-78
2023/11/11 15:07:05;;;;;;;2.47;1.40;;;10.70;38.20;;;;;;10269895;28;20255;-76
2023/11/11 15:12:09;;;;;;;1.30;1.20;;;10.70;37.80;;;;;;10278671;28;20649;-75
2023/11/11 15:17:12;;;;;;;3.27;1.30;;;10.60;37.90;;;;;;10282304;28;20279;-77
2023/11/11 15:22:18;;;;;;;3.17;1.87;;;10.50;37.90;;;;;;10285894;28;20236;-74
2023/11/11 15:27:24;;;;;;;2.00;1.40;;;10.40;37.40;;;;;;10287365;28;20999;-74
2023/11/11 15:32:27;;;;;;;1.53;1.43;;;10.40;37.50;;;;;;10281311;28;20248;-75
2023/11/11 15:37:33;;;;;;;2.40;2.20;;;10.40;37.80;;;;;;10277593;28;20671;-76
2023/11/11 15:42:37;;;;;;;1.43;1.33;;;10.30;37.40;;;;;;10268995;28;20227;-73
2023/11/11 15:47:40;;;;;;;3.27;1.30;;;10.20;37.90;;;;;;10266920;28;20238;-73
2023/11/11 15:52:45;;;;;;;1.60;1.50;;;10.20;37.90;;;;;;10269560;28;20220;-73
2023/11/11 15:57:49;;;;;;;1.40;1.30;;;10.10;37.70;;;;;;10268899;28;20227;-74
2023/11/11 16:02:52;;;;;;;2.47;1.80;;;10.10;37.60;;;;;;10267941;28;20223;-73
2023/11/11 16:07:56;;;;;;;2.77;1.90;;;10.00;38.00;;;;;;10271423;28;20223;-74
2023/11/11 16:13:00;;;;;;;1.67;1.40;;;10.00;38.00;;;;;;10266562;28;20309;-73
2023/11/11 16:18:03;;;;;;;1.77;1.40;;;10.00;38.10;;;;;;10263888;28;20319;-73
2023/11/11 16:23:08;;;;;;;2.53;1.77;;;10.00;38.10;;;;;;10267258;28;20315;-73
2023/11/11 16:28:15;;;;;;;2.83;2.63;;;9.90;39.00;;;;;;10265820;28;20227;-73
2023/11/11 16:33:21;;;;;;;3.03;2.07;;;9.90;39.10;;;;;;10263827;28;20270;-72
2023/11/11 16:38:26;;;;;;;3.27;2.50;;;9.80;39.30;;;;;;10266838;28;20240;-73
2023/11/11 16:43:29;;;;;;;2.70;2.23;;;9.70;39.30;;;;;;10266319;28;20248;-72
2023/11/11 16:48:32;;;;;;;2.60;2.00;;;9.60;39.40;;;;;;10262671;28;20310;-73
2023/11/11 16:53:36;;;;;;;2.37;2.17;;;9.50;39.50;;;;;;10259873;28;20302;-74
2023/11/11 16:58:40;;;;;;;2.10;1.90;;;9.50;39.40;;;;;;10261485;28;20579;-73
2023/11/11 17:03:43;;;;;;;2.40;2.20;;;9.50;39.60;;;;;;10267459;28;20235;-73
2023/11/11 17:08:49;;;;;;;2.67;2.47;;;9.40;39.60;;;;;;10266886;28;20231;-72
2023/11/11 17:13:53;;;;;;;2.00;1.83;;;9.40;39.60;;;;;;10268369;28;20287;-72
2023/11/11 17:18:56;;;;;;;2.13;1.60;;;9.30;39.60;;;;;;10272531;28;20227;-72
2023/11/11 17:24:01;;;;;;;2.50;2.30;;;9.40;39.60;;;;;;10258013;28;20259;-73
2023/11/11 17:29:04;;;;;;;3.10;2.20;;;9.30;39.40;;;;;;10266130;28;20239;-76
2023/11/11 17:34:07;;;;;;;1.90;1.80;;;9.30;39.50;;;;;;10279363;28;20231;-75
2023/11/11 17:39:13;;;;;;;2.20;2.10;;;9.30;39.90;;;;;;10278595;28;20236;-75
2023/11/11 17:44:17;;;;;;;2.10;1.90;;;9.30;39.50;;;;;;10278937;28;20231;-75
2023/11/11 17:49:21;;;;;;;2.20;2.00;;;9.20;39.70;;;;;;10278539;28;20331;-75
2023/11/11 17:54:28;;;;;;;2.00;1.90;;;9.30;39.80;;;;;;10276960;28;20241;-75
2023/11/11 17:59:31;;;;;;;3.80;1.87;;;9.30;39.60;;;;;;10279014;28;20228;-75
2023/11/11 18:04:36;;;;;;;2.37;1.73;;;9.20;39.40;;;;;;10277392;28;20227;-75
2023/11/11 18:09:42;;;;;;;2.63;2.43;;;9.30;39.40;;;;;;10276327;28;20235;-75
2023/11/11 18:14:45;;;;;;;4.10;3.70;;;9.30;39.40;;;;;;10275947;28;20251;-75
2023/11/11 18:19:51;;;;;;;4.77;4.37;;;9.20;39.40;;;;;;10265611;28;20231;-75
2023/11/11 18:24:56;;;;;;;3.60;3.20;;;9.20;39.60;;;;;;10268807;28;20255;-74
2023/11/11 18:30:00;;;;;;;2.90;2.70;;;9.10;39.40;;;;;;10263216;28;20228;-74
2023/11/11 18:35:05;;;;;;;3.17;2.73;;;9.10;39.70;;;;;;10261802;28;20234;-74
2023/11/11 18:40:11;;;;;;;4.23;2.83;;;9.00;39.90;;;;;;10266763;28;20227;-74
2023/11/11 18:45:15;;;;;;;3.03;2.73;;;9.00;39.60;;;;;;10270691;28;20231;-74
2023/11/11 18:50:18;;;;;;;3.40;3.10;;;9.00;39.70;;;;;;10269246;28;20232;-74
2023/11/11 18:55:29;;;;;;;6.90;5.43;;;9.00;39.80;;;;;;10277048;28;20242;-74
2023/11/11 19:00:33;;;;;;;6.33;5.73;;;9.00;39.60;;;;;;10272361;28;20235;-75
2023/11/11 19:05:36;;;;;;;4.43;4.03;;;9.00;39.50;;;;;;10270052;28;20710;-74
2023/11/11 19:10:42;;;;;;;3.80;2.87;;;9.00;39.50;;;;;;10269931;28;20234;-75
2023/11/11 19:15:45;;;;;;;3.27;2.97;;;9.00;39.40;;;;;;10273686;28;20238;-74
2023/11/11 19:20:48;;;;;;;5.27;4.77;;;9.00;39.30;;;;;;10269641;28;20239;-74
2023/11/11 19:25:53;;;;;;;15.23;12.70;;;9.00;39.00;;;;;;10274920;28;20306;-75
2023/11/11 19:30:59;;;;;;;12.67;10.03;;;8.80;38.90;;;;;;10288672;28;20246;-75
2023/11/11 19:36:05;;;;;;;21.87;19.63;;;8.50;39.00;;;;;;10281962;28;20302;-74
2023/11/11 19:41:11;;;;;;;11.47;9.80;;;8.30;39.50;;;;;;10277879;28;20636;-72
2023/11/11 19:46:16;;;;;;;11.23;10.13;;;8.10;39.30;;;;;;10280945;28;20238;-73
2023/11/11 19:51:23;;;;;;;8.30;7.50;;;7.90;39.20;;;;;;10275390;28;20257;-74
2023/11/11 19:56:27;;;;;;;9.33;6.87;;;7.80;39.80;;;;;;10271598;28;20326;-75
2023/11/11 20:01:30;;;;;;;15.57;14.17;;;7.60;39.70;;;;;;10272189;28;20670;-74
2023/11/11 20:06:34;;;;;;;13.03;11.83;;;7.60;39.80;;;;;;10262203;28;20958;-72
2023/11/11 20:11:38;;;;;;;9.70;8.63;;;7.60;39.90;;;;;;10257816;28;20235;-71
2023/11/11 20:16:42;;;;;;;10.07;9.07;;;7.60;39.90;;;;;;10260801;28;20274;-72
2023/11/11 20:21:45;;;;;;;9.23;7.83;;;7.60;39.70;;;;;;10260235;28;20236;-73
2023/11/11 20:26:49;;;;;;;10.57;9.53;;;7.60;39.70;;;;;;10252717;28;20228;-72
2023/11/11 20:31:53;;;;;;;19.07;15.73;;;7.60;39.60;;;;;;10260512;28;20236;-72
2023/11/11 20:36:56;;;;;;;12.60;10.27;;;7.50;39.40;;;;;;10265680;28;20224;-73
2023/11/11 20:42:01;;;;;;;13.77;11.10;;;7.50;39.40;;;;;;10259576;28;20259;-74
2023/11/11 20:47:05;;;;;;;22.47;17.63;;;7.40;39.60;;;;;;10261524;28;20227;-73
2023/11/11 20:52:08;;;;;;;13.33;11.30;;;7.30;39.60;;;;;;10266605;28;20238;-74
2023/11/11 20:57:13;;;;;;;8.03;7.23;;;7.30;39.70;;;;;;10262655;28;20310;-72
2023/11/11 21:02:16;;;;;;;8.10;6.07;;;7.20;39.80;;;;;;10262558;28;20224;-74
2023/11/11 21:07:21;;;;;;;6.33;5.73;;;7.10;40.00;;;;;;10267812;28;20231;-75
2023/11/11 21:12:27;;;;;;;4.87;4.33;;;7.00;40.50;;;;;;10267276;28;20716;-75
2023/11/11 21:17:30;;;;;;;6.40;5.20;;;7.00;40.70;;;;;;10260167;28;20324;-75
2023/11/11 21:22:34;;;;;;;6.07;4.50;;;7.00;40.70;;;;;;10264452;28;20239;-74
2023/11/11 21:27:39;;;;;;;3.67;2.67;;;7.10;41.00;;;;;;10275239;28;20282;-75
2023/11/11 21:32:42;;;;;;;2.90;2.57;;;7.20;41.30;;;;;;10272110;28;20237;-74
2023/11/11 21:37:47;;;;;;;3.53;2.20;;;7.30;41.20;;;;;;10269530;28;20322;-74
2023/11/11 21:42:51;;;;;;;2.17;1.97;;;7.50;41.30;;;;;;10278079;28;20223;-78
2023/11/11 21:47:55;;;;;;;2.70;2.30;;;7.70;41.30;;;;;;10279425;28;20227;-78
2023/11/11 21:52:58;;;;;;;2.07;1.97;;;7.80;41.20;;;;;;10265541;28;20250;-78
2023/11/11 21:58:03;;;;;;;2.43;2.20;;;7.90;41.10;;;;;;10276953;28;20264;-78
2023/11/11 22:03:06;;;;;;;3.20;2.90;;;8.00;41.40;;;;;;10269435;28;20234;-78
2023/11/11 22:08:09;;;;;;;4.43;3.30;;;8.10;41.10;;;;;;10274645;28;20778;-79
2023/11/11 22:13:14;;;;;;;4.23;3.60;;;8.20;41.10;;;;;;10270410;28;20231;-78
2023/11/11 22:18:17;;;;;;;4.10;2.97;;;8.20;41.10;;;;;;10269052;28;20235;-78
2023/11/11 22:23:21;;;;;;;3.23;2.97;;;8.20;41.00;;;;;;10273410;28;20821;-78
2023/11/11 22:28:25;;;;;;;3.53;3.23;;;8.20;41.30;;;;;;10273125;28;20231;-79
2023/11/11 22:33:28;;;;;;;2.70;2.50;;;8.20;41.20;;;;;;10271319;28;20225;-79
2023/11/11 22:38:32;;;;;;;2.37;2.10;;;8.20;41.30;;;;;;10273472;28;20248;-79
2023/11/11 22:43:40;;;;;;;3.30;2.20;;;8.20;41.50;;;;;;10250987;28;20252;-78
2023/11/11 22:48:44;;;;;;;2.20;1.97;;;8.20;42.00;;;;;;10259038;28;20247;-78
2023/11/11 22:53:47;;;;;;;1.87;1.67;;;8.30;41.90;;;;;;10274261;28;20259;-79
2023/11/11 22:58:52;;;;;;;3.10;2.80;;;8.40;41.90;;;;;;10274369;28;20242;-78
2023/11/11 23:03:56;;;;;;;3.30;1.90;;;8.40;42.20;;;;;;10273779;28;20649;-78
2023/11/11 23:09:00;;;;;;;3.13;2.60;;;8.50;42.00;;;;;;10273935;28;20591;-79
2023/11/11 23:14:09;;;;;;;2.57;2.37;;;8.50;42.00;;;;;;10272332;28;20226;-78
2023/11/11 23:19:13;;;;;;;3.40;2.97;;;8.50;42.20;;;;;;10272886;28;20220;-78
2023/11/11 23:24:16;;;;;;;3.67;3.10;;;8.50;41.60;;;;;;10272905;28;20228;-79
2023/11/11 23:29:21;;;;;;;3.40;3.10;;;8.50;41.50;;;;;;10278016;28;20220;-78
2023/11/11 23:34:24;;;;;;;3.10;2.67;;;8.50;41.60;;;;;;10285354;28;20258;-78
2023/11/11 23:39:29;;;;;;;4.30;3.20;;;8.40;41.50;;;;;;10295643;28;20255;-78
2023/11/11 23:44:34;;;;;;;5.17;3.50;;;8.40;41.80;;;;;;10294363;28;20303;-78
2023/11/11 23:49:37;;;;;;;5.57;4.30;;;8.40;41.80;;;;;;10295344;28;20726;-78
2023/11/11 23:54:40;;;;;;;7.77;5.27;;;8.30;41.70;;;;;;10295888;28;20639;-78
2023/11/11 23:59:45;;;;;;;9.67;4.43;;;8.30;41.80;;;;;;10295465;28;20232;-78
